sensor_id;sensor_type;location;lat;lon;timestamp;pressure;altitude;pressure_sealevel;temperature;humidity
14966;BME280;7577;45.226;5.798;2022-11-11T00:00:24;99436.34;;;9.51;100.00
14966;BME280;7577;45.226;5.798;2022-11-11T00:02:55;99431.06;;;9.61;100.00
14966;BME280;7577;45.226;5.798;2022-11-11T00:05:26;99432.38;;;9.58;100.00
14966;BME280;7577;45.226;5.798;2022-11-11T00:10:40;99424.22;;;9.58;100.00
14966;BME280;7577;45.226;5.798;2022-11-11T00:13:11;99426.03;;;9.53;100.00
14966;BME280;7577;45.226;5.798;2022-11-11T00:18:22;99411.23;;;9.46;100.00
14966;BME280;7577;45.226;5.798;2022-11-11T00:21:13;99418.62;;;9.48;100.00
14966;BME280;7577;45.226;5.798;2022-11-11T00:24:22;99420.34;;;9.38;100.00
14966;BME280;7577;45.226;5.798;2022-11-11T00:27:11;99422.05;;;9.27;100.00
14966;BME280;7577;45.226;5.798;2022-11-11T00:29:45;99423.09;;;9.26;100.00
14966;BME280;7577;45.226;5.798;2022-11-11T00:32:16;99427.73;;;9.26;100.00
14966;BME280;7577;45.226;5.798;2022-11-11T00:34:55;99426.17;;;9.30;100.00
14966;BME280;7577;45.226;5.798;2022-11-11T00:37:45;99425.46;;;9.37;100.00
14966;BME280;7577;45.226;5.798;2022-11-11T00:40:17;99423.63;;;9.40;100.00
14966;BME280;7577;45.226;5.798;2022-11-11T00:42:47;99422.30;;;9.42;100.00
14966;BME280;7577;45.226;5.798;2022-11-11T00:45:17;99429.41;;;9.29;100.00
14966;BME280;7577;45.226;5.798;2022-11-11T01:00:52;99442.13;;;9.26;100.00
14966;BME280;7577;45.226;5.798;2022-11-11T01:06:01;99442.45;;;9.13;100.00
14966;BME280;7577;45.226;5.798;2022-11-11T01:08:32;99447.38;;;9.16;100.00
14966;BME280;7577;45.226;5.798;2022-11-11T01:11:02;99445.11;;;9.25;100.00
14966;BME280;7577;45.226;5.798;2022-11-11T01:13:33;99449.04;;;9.31;100.00
14966;BME280;7577;45.226;5.798;2022-11-11T01:16:06;99450.72;;;9.35;100.00
14966;BME280;7577;45.226;5.798;2022-11-11T01:18:37;99455.64;;;9.35;100.00
14966;BME280;7577;45.226;5.798;2022-11-11T01:21:09;99460.00;;;9.36;100.00
14966;BME280;7577;45.226;5.798;2022-11-11T01:23:41;99465.44;;;9.36;100.00
14966;BME280;7577;45.226;5.798;2022-11-11T01:28:58;99457.81;;;9.22;100.00
14966;BME280;7577;45.226;5.798;2022-11-11T01:31:29;99463.69;;;9.16;100.00
14966;BME280;7577;45.226;5.798;2022-11-11T01:33:59;99457.23;;;9.06;100.00
14966;BME280;7577;45.226;5.798;2022-11-11T01:36:29;99459.56;;;9.00;100.00
14966;BME280;7577;45.226;5.798;2022-11-11T01:39:01;99459.11;;;8.91;100.00
14966;BME280;7577;45.226;5.798;2022-11-11T01:41:33;99463.08;;;8.86;100.00
14966;BME280;7577;45.226;5.798;2022-11-11T01:46:55;99455.91;;;9.08;100.00
14966;BME280;7577;45.226;5.798;2022-11-11T01:52:15;99452.95;;;9.24;100.00
14966;BME280;7577;45.226;5.798;2022-11-11T01:54:48;99451.41;;;9.14;100.00
14966;BME280;7577;45.226;5.798;2022-11-11T01:57:22;99452.25;;;9.14;100.00
14966;BME280;7577;45.226;5.798;2022-11-11T01:59:55;99449.58;;;9.17;100.00
14966;BME280;7577;45.226;5.798;2022-11-11T02:02:30;99452.53;;;9.15;100.00
14966;BME280;7577;45.226;5.798;2022-11-11T02:07:46;99457.17;;;9.03;100.00
14966;BME280;7577;45.226;5.798;2022-11-11T02:10:18;99462.38;;;8.91;100.00
14966;BME280;7577;45.226;5.798;2022-11-11T02:15:34;99460.50;;;9.05;100.00
14966;BME280;7577;45.226;5.798;2022-11-11T02:18:05;99465.89;;;8.91;100.00
14966;BME280;7577;45.226;5.798;2022-11-11T02:20:37;99465.56;;;8.88;100.00
14966;BME280;7577;45.226;5.798;2022-11-11T02:25:50;99470.81;;;8.92;100.00
14966;BME280;7577;45.226;5.798;2022-11-11T02:28:25;99470.86;;;8.94;100.00
14966;BME280;7577;45.226;5.798;2022-11-11T02:30:54;99475.72;;;8.92;100.00
14966;BME280;7577;45.226;5.798;2022-11-11T02:33:25;99478.57;;;8.86;100.00
14966;BME280;7577;45.226;5.798;2022-11-11T02:38:40;99461.47;;;8.74;100.00
14966;BME280;7577;45.226;5.798;2022-11-11T02:41:10;99471.16;;;8.70;100.00
14966;BME280;7577;45.226;5.798;2022-11-11T02:46:53;99476.55;;;8.67;100.00
14966;BME280;7577;45.226;5.798;2022-11-11T02:49:24;99488.71;;;8.65;100.00
14966;BME280;7577;45.226;5.798;2022-11-11T02:51:54;99482.16;;;8.63;100.00
14966;BME280;7577;45.226;5.798;2022-11-11T02:57:11;99484.00;;;8.86;100.00
14966;BME280;7577;45.226;5.798;2022-11-11T02:59:41;99489.20;;;8.87;100.00
14966;BME280;7577;45.226;5.798;2022-11-11T03:02:12;99481.89;;;8.76;100.00
14966;BME280;7577;45.226;5.798;2022-11-11T03:07:23;99481.81;;;8.60;100.00
14966;BME280;7577;45.226;5.798;2022-11-11T03:09:53;99490.02;;;8.62;100.00
14966;BME280;7577;45.226;5.798;2022-11-11T03:12:23;99497.68;;;8.53;100.00
14966;BME280;7577;45.226;5.798;2022-11-11T03:17:37;99495.84;;;8.68;100.00
14966;BME280;7577;45.226;5.798;2022-11-11T03:20:12;99500.41;;;8.65;100.00
14966;BME280;7577;45.226;5.798;2022-11-11T03:23:02;99502.86;;;8.67;100.00
14966;BME280;7577;45.226;5.798;2022-11-11T03:25:36;99512.67;;;8.56;100.00
14966;BME280;7577;45.226;5.798;2022-11-11T03:28:10;99519.54;;;8.59;100.00
14966;BME280;7577;45.226;5.798;2022-11-11T03:30:42;99522.70;;;8.67;100.00
14966;BME280;7577;45.226;5.798;2022-11-11T03:33:14;99522.59;;;8.62;100.00
14966;BME280;7577;45.226;5.798;2022-11-11T03:35:46;99521.58;;;8.66;100.00
14966;BME280;7577;45.226;5.798;2022-11-11T03:38:17;99523.22;;;8.67;100.00
14966;BME280;7577;45.226;5.798;2022-11-11T03:40:54;99523.83;;;8.69;100.00
14966;BME280;7577;45.226;5.798;2022-11-11T03:43:26;99522.23;;;8.70;100.00
14966;BME280;7577;45.226;5.798;2022-11-11T03:45:59;99524.33;;;8.80;100.00
14966;BME280;7577;45.226;5.798;2022-11-11T03:48:31;99535.06;;;8.86;100.00
14966;BME280;7577;45.226;5.798;2022-11-11T03:51:02;99540.02;;;8.89;100.00
14966;BME280;7577;45.226;5.798;2022-11-11T03:56:13;99547.52;;;8.96;100.00
14966;BME280;7577;45.226;5.798;2022-11-11T03:58:43;99549.06;;;8.92;100.00
14966;BME280;7577;45.226;5.798;2022-11-11T04:01:13;99557.73;;;8.92;100.00
14966;BME280;7577;45.226;5.798;2022-11-11T04:06:45;99559.59;;;8.66;100.00
14966;BME280;7577;45.226;5.798;2022-11-11T04:09:33;99563.55;;;8.61;100.00
14966;BME280;7577;45.226;5.798;2022-11-11T04:12:20;99558.59;;;8.58;100.00
14966;BME280;7577;45.226;5.798;2022-11-11T04:14:51;99544.39;;;8.42;100.00
14966;BME280;7577;45.226;5.798;2022-11-11T04:17:39;99539.30;;;8.45;100.00
14966;BME280;7577;45.226;5.798;2022-11-11T04:20:12;99545.19;;;8.53;100.00
14966;BME280;7577;45.226;5.798;2022-11-11T04:22:59;99546.38;;;8.58;100.00
14966;BME280;7577;45.226;5.798;2022-11-11T04:25:30;99557.36;;;8.39;100.00
14966;BME280;7577;45.226;5.798;2022-11-11T04:28:18;99557.36;;;8.39;100.00
14966;BME280;7577;45.226;5.798;2022-11-11T04:31:05;99557.06;;;8.38;100.00
14966;BME280;7577;45.226;5.798;2022-11-11T04:33:36;99561.92;;;8.37;100.00
14966;BME280;7577;45.226;5.798;2022-11-11T04:36:08;99561.37;;;8.37;100.00
14966;BME280;7577;45.226;5.798;2022-11-11T04:38:38;99564.92;;;8.26;100.00
14966;BME280;7577;45.226;5.798;2022-11-11T04:41:26;99571.44;;;8.27;100.00
14966;BME280;7577;45.226;5.798;2022-11-11T04:46:39;99569.69;;;8.33;100.00
14966;BME280;7577;45.226;5.798;2022-11-11T04:51:54;99575.51;;;8.27;100.00
14966;BME280;7577;45.226;5.798;2022-11-11T04:57:25;99587.94;;;8.47;100.00
14966;BME280;7577;45.226;5.798;2022-11-11T04:59:55;99591.51;;;8.38;100.00
14966;BME280;7577;45.226;5.798;2022-11-11T05:02:25;99600.61;;;8.43;100.00
14966;BME280;7577;45.226;5.798;2022-11-11T05:08:13;99593.83;;;8.55;100.00
14966;BME280;7577;45.226;5.798;2022-11-11T05:11:01;99597.27;;;8.51;100.00
14966;BME280;7577;45.226;5.798;2022-11-11T05:13:31;99600.38;;;8.57;100.00
14966;BME280;7577;45.226;5.798;2022-11-11T05:19:10;99603.44;;;8.60;100.00
14966;BME280;7577;45.226;5.798;2022-11-11T05:22:01;99605.88;;;8.59;100.00
14966;BME280;7577;45.226;5.798;2022-11-11T05:27:11;99603.41;;;8.81;100.00
14966;BME280;7577;45.226;5.798;2022-11-11T05:29:44;99604.10;;;8.76;100.00
14966;BME280;7577;45.226;5.798;2022-11-11T06:11:41;99644.44;;;8.38;100.00
14966;BME280;7577;45.226;5.798;2022-11-11T06:16:54;99651.81;;;8.28;100.00
14966;BME280;7577;45.226;5.798;2022-11-11T06:19:24;99661.83;;;8.28;100.00
14966;BME280;7577;45.226;5.798;2022-11-11T06:21:56;99658.83;;;8.18;100.00
14966;BME280;7577;45.226;5.798;2022-11-11T06:24:29;99667.55;;;8.20;100.00
14966;BME280;7577;45.226;5.798;2022-11-11T06:26:59;99662.73;;;8.31;100.00
14966;BME280;7577;45.226;5.798;2022-11-11T06:29:29;99661.93;;;8.21;100.00
14966;BME280;7577;45.226;5.798;2022-11-11T06:31:59;99661.64;;;8.20;100.00
14966;BME280;7577;45.226;5.798;2022-11-11T06:34:29;99664.36;;;8.20;100.00
14966;BME280;7577;45.226;5.798;2022-11-11T06:36:59;99666.06;;;8.15;100.00
14966;BME280;7577;45.226;5.798;2022-11-11T06:39:29;99668.94;;;8.11;100.00
14966;BME280;7577;45.226;5.798;2022-11-11T06:44:39;99676.02;;;8.21;100.00
14966;BME280;7577;45.226;5.798;2022-11-11T06:47:09;99677.98;;;8.14;100.00
14966;BME280;7577;45.226;5.798;2022-11-11T06:49:39;99678.63;;;8.18;100.00
14966;BME280;7577;45.226;5.798;2022-11-11T06:52:09;99676.56;;;8.20;100.00
14966;BME280;7577;45.226;5.798;2022-11-11T06:54:40;99677.05;;;8.20;100.00
14966;BME280;7577;45.226;5.798;2022-11-11T06:59:58;99672.63;;;8.25;100.00
14966;BME280;7577;45.226;5.798;2022-11-11T07:02:28;99685.96;;;8.27;100.00
14966;BME280;7577;45.226;5.798;2022-11-11T07:04:59;99684.25;;;8.23;100.00
14966;BME280;7577;45.226;5.798;2022-11-11T07:07:32;99690.94;;;8.21;100.00
14966;BME280;7577;45.226;5.798;2022-11-11T07:10:30;99697.82;;;8.23;100.00
14966;BME280;7577;45.226;5.798;2022-11-11T07:13:25;99695.20;;;8.08;100.00
14966;BME280;7577;45.226;5.798;2022-11-11T07:15:55;99702.34;;;8.20;100.00
14966;BME280;7577;45.226;5.798;2022-11-11T07:18:25;99702.47;;;8.25;100.00
14966;BME280;7577;45.226;5.798;2022-11-11T07:20:55;99695.46;;;8.27;100.00
14966;BME280;7577;45.226;5.798;2022-11-11T07:23:25;99696.52;;;8.26;100.00
14966;BME280;7577;45.226;5.798;2022-11-11T07:25:55;99688.52;;;8.31;100.00
14966;BME280;7577;45.226;5.798;2022-11-11T07:31:06;99687.92;;;8.50;100.00
14966;BME280;7577;45.226;5.798;2022-11-11T07:33:36;99693.20;;;8.56;100.00
14966;BME280;7577;45.226;5.798;2022-11-11T07:36:06;99696.53;;;8.58;100.00
14966;BME280;7577;45.226;5.798;2022-11-11T07:38:36;99697.78;;;8.65;100.00
14966;BME280;7577;45.226;5.798;2022-11-11T07:41:06;99699.39;;;8.98;100.00
14966;BME280;7577;45.226;5.798;2022-11-11T07:43:36;99702.34;;;9.31;100.00
14966;BME280;7577;45.226;5.798;2022-11-11T07:46:08;99698.38;;;9.61;100.00
14966;BME280;7577;45.226;5.798;2022-11-11T07:48:38;99706.22;;;9.83;100.00
14966;BME280;7577;45.226;5.798;2022-11-11T07:53:51;99711.78;;;10.30;100.00
14966;BME280;7577;45.226;5.798;2022-11-11T07:56:21;99710.31;;;10.39;100.00
14966;BME280;7577;45.226;5.798;2022-11-11T07:58:51;99715.08;;;10.46;100.00
14966;BME280;7577;45.226;5.798;2022-11-11T08:01:21;99717.27;;;10.33;100.00
14966;BME280;7577;45.226;5.798;2022-11-11T08:06:32;99704.98;;;10.16;100.00
14966;BME280;7577;45.226;5.798;2022-11-11T08:09:03;99704.66;;;10.13;100.00
14966;BME280;7577;45.226;5.798;2022-11-11T08:11:33;99703.48;;;10.09;100.00
14966;BME280;7577;45.226;5.798;2022-11-11T08:14:20;99703.53;;;10.11;100.00
14966;BME280;7577;45.226;5.798;2022-11-11T08:16:50;99705.72;;;10.00;100.00
14966;BME280;7577;45.226;5.798;2022-11-11T08:19:21;99703.86;;;10.15;100.00
14966;BME280;7577;45.226;5.798;2022-11-11T08:21:52;99700.86;;;10.14;100.00
14966;BME280;7577;45.226;5.798;2022-11-11T08:24:23;99698.47;;;10.17;100.00
14966;BME280;7577;45.226;5.798;2022-11-11T08:26:53;99690.75;;;10.26;100.00
14966;BME280;7577;45.226;5.798;2022-11-11T08:29:23;99694.23;;;10.24;100.00
14966;BME280;7577;45.226;5.798;2022-11-11T08:34:37;99685.23;;;10.37;100.00
14966;BME280;7577;45.226;5.798;2022-11-11T08:37:07;99693.42;;;10.54;100.00
14966;BME280;7577;45.226;5.798;2022-11-11T08:39:37;99691.06;;;10.60;100.00
14966;BME280;7577;45.226;5.798;2022-11-11T08:42:07;99699.13;;;11.02;100.00
14966;BME280;7577;45.226;5.798;2022-11-11T08:44:37;99694.97;;;11.32;100.00
14966;BME280;7577;45.226;5.798;2022-11-11T08:49:47;99691.30;;;12.08;100.00
14966;BME280;7577;45.226;5.798;2022-11-11T08:52:18;99694.55;;;12.02;100.00
14966;BME280;7577;45.226;5.798;2022-11-11T08:54:48;99689.58;;;11.99;100.00
14966;BME280;7577;45.226;5.798;2022-11-11T08:57:18;99686.78;;;12.18;100.00
14966;BME280;7577;45.226;5.798;2022-11-11T08:59:48;99681.67;;;12.53;100.00
14966;BME280;7577;45.226;5.798;2022-11-11T09:02:18;99687.33;;;12.73;100.00
14966;BME280;7577;45.226;5.798;2022-11-11T09:07:32;99682.13;;;12.72;100.00
14966;BME280;7577;45.226;5.798;2022-11-11T09:12:45;99680.61;;;12.28;100.00
14966;BME280;7577;45.226;5.798;2022-11-11T09:15:15;99687.77;;;11.86;100.00
14966;BME280;7577;45.226;5.798;2022-11-11T09:17:47;99687.66;;;12.00;100.00
14966;BME280;7577;45.226;5.798;2022-11-11T09:20:17;99677.77;;;11.94;100.00
14966;BME280;7577;45.226;5.798;2022-11-11T09:22:49;99677.60;;;12.03;100.00
14966;BME280;7577;45.226;5.798;2022-11-11T09:25:21;99672.37;;;11.99;100.00
14966;BME280;7577;45.226;5.798;2022-11-11T09:27:55;99675.23;;;12.09;100.00
14966;BME280;7577;45.226;5.798;2022-11-11T09:30:26;99673.48;;;12.24;100.00
14966;BME280;7577;45.226;5.798;2022-11-11T09:35:44;99667.88;;;12.38;100.00
14966;BME280;7577;45.226;5.798;2022-11-11T09:38:14;99666.03;;;12.17;100.00
14966;BME280;7577;45.226;5.798;2022-11-11T09:40:59;99681.37;;;11.97;100.00
14966;BME280;7577;45.226;5.798;2022-11-11T09:43:34;99681.62;;;11.95;100.00
14966;BME280;7577;45.226;5.798;2022-11-11T09:46:17;99679.61;;;11.88;100.00
14966;BME280;7577;45.226;5.798;2022-11-11T09:51:40;99677.25;;;11.94;100.00
14966;BME280;7577;45.226;5.798;2022-11-11T09:56:55;99685.44;;;11.94;100.00
14966;BME280;7577;45.226;5.798;2022-11-11T09:59:29;99692.17;;;11.87;100.00
14966;BME280;7577;45.226;5.798;2022-11-11T10:02:01;99699.32;;;11.71;100.00
14966;BME280;7577;45.226;5.798;2022-11-11T10:07:19;99689.30;;;11.77;100.00
14966;BME280;7577;45.226;5.798;2022-11-11T10:12:43;99694.26;;;11.80;100.00
14966;BME280;7577;45.226;5.798;2022-11-11T10:15:14;99692.69;;;11.65;100.00
14966;BME280;7577;45.226;5.798;2022-11-11T10:17:55;99696.19;;;11.60;100.00
14966;BME280;7577;45.226;5.798;2022-11-11T10:20:27;99692.78;;;11.70;100.00
14966;BME280;7577;45.226;5.798;2022-11-11T10:23:01;99683.26;;;11.72;100.00
14966;BME280;7577;45.226;5.798;2022-11-11T10:25:32;99681.86;;;11.70;100.00
14966;BME280;7577;45.226;5.798;2022-11-11T10:30:44;99669.81;;;11.90;100.00
14966;BME280;7577;45.226;5.798;2022-11-11T10:33:17;99659.48;;;11.92;100.00
14966;BME280;7577;45.226;5.798;2022-11-11T10:35:49;99660.52;;;12.12;100.00
14966;BME280;7577;45.226;5.798;2022-11-11T10:38:28;99657.97;;;12.03;100.00
14966;BME280;7577;45.226;5.798;2022-11-11T10:41:00;99664.56;;;12.07;100.00
14966;BME280;7577;45.226;5.798;2022-11-11T10:43:31;99664.84;;;12.08;100.00
14966;BME280;7577;45.226;5.798;2022-11-11T10:46:04;99655.36;;;12.16;100.00
14966;BME280;7577;45.226;5.798;2022-11-11T10:51:25;99656.80;;;12.23;100.00
14966;BME280;7577;45.226;5.798;2022-11-11T10:54:04;99651.89;;;12.23;100.00
14966;BME280;7577;45.226;5.798;2022-11-11T10:56:37;99642.69;;;12.34;100.00
14966;BME280;7577;45.226;5.798;2022-11-11T10:59:14;99643.55;;;12.37;100.00
14966;BME280;7577;45.226;5.798;2022-11-11T11:01:48;99637.23;;;12.34;100.00
14966;BME280;7577;45.226;5.798;2022-11-11T11:07:04;99630.83;;;12.50;100.00
14966;BME280;7577;45.226;5.798;2022-11-11T11:12:19;99621.97;;;12.69;100.00
14966;BME280;7577;45.226;5.798;2022-11-11T11:14:52;99625.00;;;12.73;100.00
14966;BME280;7577;45.226;5.798;2022-11-11T11:17:26;99628.00;;;12.74;100.00
14966;BME280;7577;45.226;5.798;2022-11-11T11:20:11;99621.49;;;12.77;100.00
14966;BME280;7577;45.226;5.798;2022-11-11T11:22:46;99614.45;;;12.86;100.00
14966;BME280;7577;45.226;5.798;2022-11-11T11:25:18;99614.75;;;12.92;100.00
14966;BME280;7577;45.226;5.798;2022-11-11T11:27:50;99616.19;;;13.00;100.00
14966;BME280;7577;45.226;5.798;2022-11-11T11:30:23;99625.26;;;13.05;100.00
14966;BME280;7577;45.226;5.798;2022-11-11T11:32:59;99618.38;;;12.98;100.00
14966;BME280;7577;45.226;5.798;2022-11-11T11:35:32;99617.86;;;13.01;100.00
14966;BME280;7577;45.226;5.798;2022-11-11T11:38:04;99611.59;;;13.05;100.00
14966;BME280;7577;45.226;5.798;2022-11-11T11:40:54;99599.33;;;13.15;100.00
14966;BME280;7577;45.226;5.798;2022-11-11T11:43:33;99599.66;;;13.21;100.00
14966;BME280;7577;45.226;5.798;2022-11-11T11:46:14;99598.28;;;13.21;100.00
14966;BME280;7577;45.226;5.798;2022-11-11T11:48:48;99596.36;;;13.24;100.00
14966;BME280;7577;45.226;5.798;2022-11-11T11:51:26;99596.98;;;13.36;100.00
14966;BME280;7577;45.226;5.798;2022-11-11T11:54:12;99595.95;;;13.47;100.00
14966;BME280;7577;45.226;5.798;2022-11-11T11:56:45;99584.42;;;13.45;100.00
14966;BME280;7577;45.226;5.798;2022-11-11T12:02:04;99572.44;;;13.56;100.00
14966;BME280;7577;45.226;5.798;2022-11-11T12:07:54;99562.04;;;13.61;100.00
14966;BME280;7577;45.226;5.798;2022-11-11T12:10:33;99557.67;;;13.65;100.00
14966;BME280;7577;45.226;5.798;2022-11-11T12:13:05;99550.82;;;13.60;98.93
14966;BME280;7577;45.226;5.798;2022-11-11T12:15:38;99550.83;;;13.62;100.00
14966;BME280;7577;45.226;5.798;2022-11-11T12:18:20;99544.26;;;13.66;99.94
14966;BME280;7577;45.226;5.798;2022-11-11T12:20:54;99546.20;;;13.70;100.00
14966;BME280;7577;45.226;5.798;2022-11-11T12:23:33;99541.52;;;13.66;99.20
14966;BME280;7577;45.226;5.798;2022-11-11T12:26:07;99538.53;;;13.75;99.85
14966;BME280;7577;45.226;5.798;2022-11-11T12:28:47;99538.26;;;13.74;98.69
14966;BME280;7577;45.226;5.798;2022-11-11T12:31:24;99530.61;;;13.76;96.65
14966;BME280;7577;45.226;5.798;2022-11-11T12:34:01;99528.67;;;13.74;95.74
14966;BME280;7577;45.226;5.798;2022-11-11T12:36:35;99524.88;;;13.77;96.02
14966;BME280;7577;45.226;5.798;2022-11-11T12:39:14;99519.40;;;13.77;96.95
14966;BME280;7577;45.226;5.798;2022-11-11T12:41:50;99513.66;;;13.89;97.39
14966;BME280;7577;45.226;5.798;2022-11-11T12:44:21;99510.92;;;13.96;98.35
14966;BME280;7577;45.226;5.798;2022-11-11T12:46:58;99510.12;;;14.06;97.56
14966;BME280;7577;45.226;5.798;2022-11-11T12:52:40;99495.91;;;14.21;98.25
14966;BME280;7577;45.226;5.798;2022-11-11T12:55:17;99500.02;;;14.21;100.00
14966;BME280;7577;45.226;5.798;2022-11-11T12:58:03;99492.58;;;14.12;94.14
14966;BME280;7577;45.226;5.798;2022-11-11T13:00:35;99482.45;;;14.15;97.34
14966;BME280;7577;45.226;5.798;2022-11-11T13:06:16;99470.41;;;14.21;91.71
14966;BME280;7577;45.226;5.798;2022-11-11T13:11:46;99462.73;;;14.33;90.34
14966;BME280;7577;45.226;5.798;2022-11-11T13:14:36;99469.03;;;14.28;86.66
14966;BME280;7577;45.226;5.798;2022-11-11T13:17:11;99458.33;;;14.29;87.42
14966;BME280;7577;45.226;5.798;2022-11-11T13:19:44;99457.25;;;14.33;90.75
14966;BME280;7577;45.226;5.798;2022-11-11T13:22:20;99449.55;;;14.37;89.81
14966;BME280;7577;45.226;5.798;2022-11-11T13:24:51;99450.13;;;14.34;87.54
14966;BME280;7577;45.226;5.798;2022-11-11T13:27:28;99446.55;;;14.39;85.57
14966;BME280;7577;45.226;5.798;2022-11-11T13:33:14;99444.85;;;14.55;88.28
14966;BME280;7577;45.226;5.798;2022-11-11T13:35:46;99441.57;;;14.56;88.74
14966;BME280;7577;45.226;5.798;2022-11-11T13:38:27;99428.10;;;14.64;90.11
14966;BME280;7577;45.226;5.798;2022-11-11T13:41:00;99431.12;;;14.70;88.33
14966;BME280;7577;45.226;5.798;2022-11-11T13:43:33;99423.96;;;14.77;89.73
14966;BME280;7577;45.226;5.798;2022-11-11T13:46:05;99425.02;;;14.88;89.43
14966;BME280;7577;45.226;5.798;2022-11-11T13:48:46;99414.55;;;14.93;90.47
14966;BME280;7577;45.226;5.798;2022-11-11T13:54:18;99408.47;;;15.03;87.46
14966;BME280;7577;45.226;5.798;2022-11-11T13:56:40;99409.04;;;15.03;87.11
14966;BME280;7577;45.226;5.798;2022-11-11T13:59:19;99400.53;;;15.04;87.38
14966;BME280;7577;45.226;5.798;2022-11-11T14:05:16;99393.36;;;15.11;87.57
14966;BME280;7577;45.226;5.798;2022-11-11T14:10:51;99396.41;;;15.04;86.94
14966;BME280;7577;45.226;5.798;2022-11-11T14:13:40;99408.77;;;15.02;86.47
14966;BME280;7577;45.226;5.798;2022-11-11T14:16:11;99395.56;;;15.06;89.41
14966;BME280;7577;45.226;5.798;2022-11-11T14:18:44;99405.38;;;15.15;88.36
14966;BME280;7577;45.226;5.798;2022-11-11T14:21:43;99402.09;;;15.15;87.71
14966;BME280;7577;45.226;5.798;2022-11-11T14:27:00;99399.13;;;15.09;86.17
14966;BME280;7577;45.226;5.798;2022-11-11T14:29:33;99403.75;;;15.14;86.36
14966;BME280;7577;45.226;5.798;2022-11-11T14:32:23;99401.02;;;15.11;85.69
14966;BME280;7577;45.226;5.798;2022-11-11T14:35:09;99394.96;;;15.17;86.98
14966;BME280;7577;45.226;5.798;2022-11-11T14:37:55;99400.16;;;15.21;87.48
14966;BME280;7577;45.226;5.798;2022-11-11T14:40:27;99397.41;;;15.21;85.22
14966;BME280;7577;45.226;5.798;2022-11-11T14:43:00;99394.09;;;15.21;83.72
14966;BME280;7577;45.226;5.798;2022-11-11T14:46:03;99394.11;;;15.24;85.10
14966;BME280;7577;45.226;5.798;2022-11-11T14:49:01;99391.87;;;15.28;84.75
14966;BME280;7577;45.226;5.798;2022-11-11T14:51:41;99391.61;;;15.27;85.51
14966;BME280;7577;45.226;5.798;2022-11-11T14:57:24;99388.16;;;15.09;87.06
14966;BME280;7577;45.226;5.798;2022-11-11T14:59:57;99392.84;;;15.04;88.37
14966;BME280;7577;45.226;5.798;2022-11-11T15:02:31;99402.47;;;14.99;88.76
14966;BME280;7577;45.226;5.798;2022-11-11T15:05:04;99400.05;;;14.90;88.33
14966;BME280;7577;45.226;5.798;2022-11-11T15:13:55;99401.75;;;14.73;90.76
14966;BME280;7577;45.226;5.798;2022-11-11T15:16:40;99400.17;;;14.60;92.35
14966;BME280;7577;45.226;5.798;2022-11-11T15:19:17;99399.92;;;14.54;93.10
14966;BME280;7577;45.226;5.798;2022-11-11T15:21:51;99396.64;;;14.49;94.60
14966;BME280;7577;45.226;5.798;2022-11-11T15:24:27;99402.12;;;14.47;95.24
14966;BME280;7577;45.226;5.798;2022-11-11T15:27:00;99404.05;;;14.41;95.88
14966;BME280;7577;45.226;5.798;2022-11-11T15:32:42;99406.02;;;14.26;95.43
14966;BME280;7577;45.226;5.798;2022-11-11T15:35:28;99408.73;;;14.18;96.26
14966;BME280;7577;45.226;5.798;2022-11-11T15:38:00;99410.94;;;14.11;96.45
14966;BME280;7577;45.226;5.798;2022-11-11T15:40:41;99407.10;;;14.05;96.88
14966;BME280;7577;45.226;5.798;2022-11-11T15:43:04;99406.02;;;13.98;97.45
14966;BME280;7577;45.226;5.798;2022-11-11T15:45:36;99413.98;;;13.90;98.91
14966;BME280;7577;45.226;5.798;2022-11-11T15:48:14;99416.99;;;13.83;99.70
14966;BME280;7577;45.226;5.798;2022-11-11T15:53:29;99409.86;;;13.67;100.00
14966;BME280;7577;45.226;5.798;2022-11-11T15:55:59;99409.33;;;13.55;100.00
14966;BME280;7577;45.226;5.798;2022-11-11T15:58:31;99411.50;;;13.46;100.00
14966;BME280;7577;45.226;5.798;2022-11-11T16:01:04;99405.72;;;13.37;100.00
14966;BME280;7577;45.226;5.798;2022-11-11T16:06:18;99400.51;;;13.23;100.00
14966;BME280;7577;45.226;5.798;2022-11-11T16:08:51;99401.86;;;13.13;100.00
14966;BME280;7577;45.226;5.798;2022-11-11T16:11:24;99400.18;;;13.05;100.00
14966;BME280;7577;45.226;5.798;2022-11-11T16:13:55;99409.17;;;12.95;100.00
14966;BME280;7577;45.226;5.798;2022-11-11T16:16:28;99417.03;;;12.82;100.00
14966;BME280;7577;45.226;5.798;2022-11-11T16:21:46;99425.20;;;12.72;100.00
14966;BME280;7577;45.226;5.798;2022-11-11T16:24:21;99422.95;;;12.59;100.00
14966;BME280;7577;45.226;5.798;2022-11-11T16:26:51;99426.75;;;12.53;100.00
14966;BME280;7577;45.226;5.798;2022-11-11T16:29:23;99426.41;;;12.42;100.00
14966;BME280;7577;45.226;5.798;2022-11-11T16:31:54;99422.00;;;12.33;100.00
14966;BME280;7577;45.226;5.798;2022-11-11T16:34:39;99421.69;;;12.30;100.00
14966;BME280;7577;45.226;5.798;2022-11-11T16:37:10;99427.69;;;12.24;100.00
14966;BME280;7577;45.226;5.798;2022-11-11T16:39:41;99433.13;;;12.22;100.00
14966;BME280;7577;45.226;5.798;2022-11-11T16:42:19;99437.47;;;12.18;100.00
14966;BME280;7577;45.226;5.798;2022-11-11T16:44:56;99436.61;;;12.12;100.00
14966;BME280;7577;45.226;5.798;2022-11-11T16:50:26;99438.18;;;12.03;100.00
14966;BME280;7577;45.226;5.798;2022-11-11T16:52:59;99441.41;;;11.98;100.00
14966;BME280;7577;45.226;5.798;2022-11-11T16:55:33;99450.67;;;11.94;100.00
14966;BME280;7577;45.226;5.798;2022-11-11T17:00:58;99448.97;;;11.88;100.00
14966;BME280;7577;45.226;5.798;2022-11-11T17:06:09;99454.11;;;11.82;100.00
14966;BME280;7577;45.226;5.798;2022-11-11T17:08:41;99458.70;;;11.77;100.00
14966;BME280;7577;45.226;5.798;2022-11-11T17:14:15;99470.10;;;11.71;100.00
14966;BME280;7577;45.226;5.798;2022-11-11T17:16:45;99477.21;;;11.70;100.00
14966;BME280;7577;45.226;5.798;2022-11-11T17:19:15;99477.19;;;11.67;100.00
14966;BME280;7577;45.226;5.798;2022-11-11T17:21:45;99480.97;;;11.66;100.00
14966;BME280;7577;45.226;5.798;2022-11-11T17:24:15;99492.63;;;11.59;100.00
14966;BME280;7577;45.226;5.798;2022-11-11T17:26:45;99487.85;;;11.47;100.00
14966;BME280;7577;45.226;5.798;2022-11-11T17:29:15;99488.08;;;11.43;100.00
14966;BME280;7577;45.226;5.798;2022-11-11T17:31:45;99490.03;;;11.45;100.00